createdAt,value
2022-09-26T00:01:39.393Z,23.9
2022-09-26T00:07:03.111Z,23.9
2022-09-26T00:12:39.322Z,23.9
2022-09-26T04:51:44.606Z,22.9
2022-09-26T04:57:21.779Z,22.8
2022-09-26T05:02:58.532Z,22.8
2022-09-26T05:08:40.950Z,22.7
2022-09-26T05:14:26.942Z,22.7
2022-09-26T05:19:49.183Z,22.6
2022-09-26T05:25:27.257Z,22.6
2022-09-26T05:30:49.413Z,22.7
2022-09-26T05:36:16.304Z,22.6
2022-09-26T05:41:55.465Z,22.6
2022-09-26T05:47:33.730Z,22.6
2022-09-26T05:53:12.987Z,22.6
2022-09-26T05:58:35.887Z,22.6
2022-09-26T06:04:16.682Z,22.7
2022-09-26T06:09:53.423Z,22.8
2022-09-26T06:15:36.976Z,22.8
2022-09-26T06:21:18.356Z,29.1
2022-09-26T06:26:55.536Z,30.7
2022-09-26T06:32:34.517Z,29.9
2022-09-26T06:38:15.294Z,29.2
2022-09-26T06:43:55.993Z,33.4
2022-09-26T06:49:18.928Z,32.3
2022-09-26T06:54:51.763Z,32.9
2022-09-26T07:00:29.221Z,33.8
2022-09-26T07:05:58.099Z,34.7
2022-09-26T07:12:45.384Z,35.6
2022-09-26T07:18:08.285Z,35.9
2022-09-26T07:23:30.642Z,35.7
2022-09-26T07:28:37.426Z,37.1
2022-09-26T07:34:01.535Z,37.6
2022-09-26T07:39:29.182Z,37.5
2022-09-26T07:46:44.502Z,37.9
2022-09-26T07:51:57.924Z,39.6
2022-09-26T07:57:20.025Z,39.9
2022-09-26T08:02:43.207Z,41.1
2022-09-26T08:08:08.262Z,41.9
2022-09-26T08:13:33.644Z,42.8
2022-09-26T08:18:56.263Z,43.6
2022-09-26T08:24:18.368Z,44.4
2022-09-26T08:29:40.850Z,45.1
2022-09-26T08:35:04.537Z,45.8
2022-09-26T08:40:27.109Z,46.4
2022-09-26T08:45:49.714Z,46.9
2022-09-26T08:50:56.649Z,47.6
2022-09-26T08:56:18.248Z,48.4
2022-09-26T14:27:57.763Z,36.6
2022-09-26T14:33:05.896Z,36.3
2022-09-26T14:38:31.362Z,35.9
2022-09-26T14:43:54.185Z,35.6
2022-09-26T14:49:01.613Z,35.3
2022-09-26T14:54:23.967Z,35.1
2022-09-26T14:59:50.612Z,34.8
2022-09-26T15:04:58.575Z,34.6
2022-09-26T15:10:20.884Z,34.4
2022-09-26T15:15:43.597Z,34.2
2022-09-26T15:21:06.336Z,34
2022-09-26T15:26:27.300Z,33.9
2022-09-26T15:31:50.598Z,33.7
2022-09-26T15:37:14.471Z,33.6
2022-09-26T15:42:37.304Z,33.4
2022-09-26T15:47:50.077Z,33.3
2022-09-26T15:53:12.767Z,33.1
2022-09-26T15:58:53.495Z,32.9
2022-09-26T16:04:16.644Z,32.8
2022-09-26T16:09:58.983Z,32.6
2022-09-26T16:15:39.163Z,32.5
2022-09-26T16:21:17.161Z,32.4
2022-09-26T16:27:01.534Z,32.3
2022-09-26T16:32:39.648Z,32.1
2022-09-26T16:38:17.410Z,32
2022-09-26T16:43:51.731Z,31.9
2022-09-26T16:49:36.770Z,31.8
2022-09-26T16:55:20.450Z,31.7
2022-09-26T17:00:57.847Z,31.6
2022-09-26T17:06:35.756Z,31.4
2022-09-26T17:12:14.090Z,31.4
2022-09-26T17:17:52.415Z,31.3
2022-09-26T17:23:54.468Z,31.1
2022-09-26T17:29:38.254Z,30.9
2022-09-26T17:35:16.866Z,30.7
2022-09-26T17:40:54.807Z,30.6
2022-09-26T17:46:33.304Z,30.5
2022-09-26T17:51:56.355Z,30.4
2022-09-26T17:57:02.895Z,30.4
2022-09-26T18:02:31.018Z,30.4
2022-09-26T18:08:09.384Z,30.3
2022-09-26T18:13:47.380Z,30.2
2022-09-26T18:19:26.055Z,30.2
2022-09-26T18:25:08.845Z,30.1
2022-09-26T18:30:30.725Z,29.9
